Avon, NY

3:55 PM EDT on September 30, 2014 (GMT -0400)
East | Change Station
CLOSE
Current Station
Personal Weather Station
Location: Avon, NY
Elevation: 922 ft
Nearby Weather Stations

Elev 922 ft 42.88 °N, 77.68 °W | Updated 2 seconds ago

Clear
Clear
73.0 °F
Feels Like 74 °F
N
4.0
Wind Variable Wind from North
Gusts 12.0 mph

Today
High -- | Low -- °F
--% Chance of Precip.
Yesterday
High -- | Low -- °F
Precip. -- in
7:07 AM 6:54 PM
Waxing Crescent, 39% visible
Pressure 29.90 in
Visibility 10.0 miles
Clouds Few 3000 ft
Few 18000 ft
Heat Index 74 °F
Dew Point 64 °F
Humidity 74%
Rainfall 0.00 in
Snow Depth Not available.
UV 4 out of 12
Pollen 1.30 out of 12
PM2.5 Moderate
Flu Activity Not available.
METAR KROC 301854Z 02012KT 10SM FEW030 FEW180 21/15 A2989 RMK AO2 SLP123 T02060150

More Conditions Fewer Conditions

Pressure 29.90 in
Visibility 10.0 miles
Clouds Few 3000 ft
Few 18000 ft
Heat Index 74 °F
Dew Point 64 °F
Humidity 74%
Rainfall 0.00 in
Snow Depth Not available.
UV 4 out of 12
Pollen 1.30 out of 12
PM2.5 Moderate
Flu Activity Not available.
METAR KROC 301854Z 02012KT 10SM FEW030 FEW180 21/15 A2989 RMK AO2 SLP123 T02060150

More Conditions Fewer Conditions

10-Day Weather Forecast

Almanac

Astronomy

Sep. 30, 2014 Rise Set
Actual Time 7:07 AM EDT 6:54 PM EDT
Civil Twilight 6:38 AM EDT 7:22 PM EDT
Nautical Twilight 6:05 AM EDT 7:55 PM EDT
Astronomical Twilight 5:32 AM EDT 8:28 PM EDT
Moon 1:19 PM EDT 11:15 PM EDT
Length of Visible Light 12h 43m
Length of Day
11h 46m
Tomorrow will be 2m 54s shorter.
Waxing Crescent, 39% of the Moon is Illuminated
Today
Waxing Crescent
Oct 1
First Quarter
Oct 8
Full
Oct 15
Last Quarter
Oct 23
New

Today's Extremes

State Highs State Lows

Community

WunderPhotos

Upload Photos

1,757,731 photos uploaded!

Nearby

Air Quality

  Air Quality AQ Index Pollutant
Yesterday Good
OZONE
Yesterday Good
PM2.5
Current Moderate
PM2.5
Tuesday Moderate
PM2.5
Tuesday Good
OZONE
Wednesday Good
PM2.5

Snow Depth

Station Depth Elevation
No new snow has been reported.

Earthquake Activity

City Distance Mag. Time & Date
No recent earthquake activity has been reported nearby.
Minimum magnitude displayed is 2.5.

Coastal Water Temperatures

Place Temperature
Buffalo, NY 68.0 °F
Alexandria Bay, NY 64.9 °F

Nearby Weather Stations